Time;durP1;ratioP1;P1;durP2;ratioP2;P2;SDS_P1;SDS_P2;PMS_P1;PMS_P2;Temp;Humidity;BMP_temperature;BMP_pressure;BME280_temperature;BME280_humidity;BME280_pressure;Samples;Min_cycle;Max_cycle;Signal;HPM_P1;HPM_P2
2022/03/16 00:02:21;;;;;;;5.18;3.15;;;;;;;-2.87;49.93;101071.97;5054714;28;20056;-77
2022/03/16 00:04:47;;;;;;;5.70;2.70;;;;;;;-2.93;49.97;101070.63;5053537;28;20045;-76
2022/03/16 00:07:14;;;;;;;5.97;2.75;;;;;;;-2.95;50.16;101078.16;5039450;28;20373;-78
2022/03/16 00:09:40;;;;;;;7.05;2.75;;;;;;;-2.97;49.81;101073.75;5020403;28;20041;-78
2022/03/16 00:12:06;;;;;;;6.38;3.00;;;;;;;-2.95;50.36;101075.59;5039349;28;20099;-78
2022/03/16 00:14:31;;;;;;;5.50;2.90;;;;;;;-2.96;50.55;101063.69;5053850;28;20158;-78
2022/03/16 00:16:57;;;;;;;6.25;2.97;;;;;;;-3.04;50.24;101069.88;5054867;28;20036;-78
2022/03/16 00:19:23;;;;;;;6.13;2.92;;;;;;;-3.03;50.21;101070.75;5049756;28;20033;-77
2022/03/16 00:21:49;;;;;;;6.20;2.83;;;;;;;-3.04;50.22;101076.59;5041381;28;20053;-77
2022/03/16 00:24:14;;;;;;;6.32;2.70;;;;;;;-3.07;50.39;101072.16;5036587;28;20443;-77
2022/03/16 00:26:40;;;;;;;7.97;2.75;;;;;;;-3.10;50.50;101074.50;5054365;28;20048;-78
2022/03/16 00:29:06;;;;;;;6.57;2.67;;;;;;;-3.09;50.61;101067.00;5041405;28;20040;-78
2022/03/16 00:31:33;;;;;;;5.50;2.60;;;;;;;-3.07;50.71;101074.72;5049422;28;20048;-78
2022/03/16 00:33:58;;;;;;;5.53;2.75;;;;;;;-3.05;50.99;101074.84;5036563;28;20495;-78
2022/03/16 00:36:24;;;;;;;4.78;2.92;;;;;;;-3.12;51.12;101071.84;5052785;28;20041;-78
2022/03/16 00:38:50;;;;;;;8.18;3.08;;;;;;;-3.09;51.22;101078.81;5036279;28;20095;-78
2022/03/16 00:41:17;;;;;;;8.95;2.70;;;;;;;-3.12;51.00;101074.38;5037617;28;20046;-78
2022/03/16 00:43:43;;;;;;;5.82;2.72;;;;;;;-3.19;50.69;101067.09;5003347;28;20040;-78
2022/03/16 00:46:11;;;;;;;7.15;2.95;;;;;;;-3.18;50.57;101066.31;5038454;28;20124;-78
2022/03/16 00:48:36;;;;;;;6.50;2.47;;;;;;;-3.17;51.22;101073.16;5052313;28;20156;-78
2022/03/16 00:51:02;;;;;;;6.00;2.83;;;;;;;-3.17;50.66;101069.75;5052436;28;20055;-78
2022/03/16 00:53:30;;;;;;;12.40;7.35;;;;;;;-3.11;51.23;101072.75;5053687;28;20044;-78
2022/03/16 00:55:56;;;;;;;5.03;2.95;;;;;;;-3.10;50.94;101074.50;5012719;28;20041;-78
2022/03/16 00:58:24;;;;;;;9.88;3.47;;;;;;;-3.16;51.09;101076.56;5046310;28;20528;-78
2022/03/16 01:00:50;;;;;;;6.07;3.00;;;;;;;-3.21;50.99;101080.44;5043519;28;20045;-78
2022/03/16 01:03:15;;;;;;;;;;;;;;;-3.29;51.52;101077.34;5046305;28;20056;-78
2022/03/16 01:05:41;;;;;;;6.05;2.90;;;;;;;-3.29;51.84;101076.47;5053331;28;19923;-77
2022/03/16 01:08:07;;;;;;;4.93;3.28;;;;;;;-3.32;51.36;101077.13;5053884;28;20499;-77
2022/03/16 01:10:32;;;;;;;9.98;3.38;;;;;;;-3.40;52.08;101073.13;5035688;28;20139;-77
2022/03/16 01:12:58;;;;;;;6.57;3.00;;;;;;;-3.51;51.92;101066.41;5035723;28;20032;-78
2022/03/16 01:15:24;;;;;;;5.65;2.67;;;;;;;-3.48;51.80;101079.28;5052209;28;20155;-78
2022/03/16 01:17:52;;;;;;;8.65;3.08;;;;;;;-3.55;52.70;101077.06;5052106;28;20041;-78
2022/03/16 01:20:18;;;;;;;7.28;3.08;;;;;;;-3.57;52.91;101071.91;5035651;28;20066;-77
2022/03/16 01:22:44;;;;;;;9.65;3.13;;;;;;;-3.60;52.56;101074.19;5030023;28;20053;-79
2022/03/16 01:25:11;;;;;;;5.40;3.03;;;;;;;-3.65;52.30;101073.84;5034761;28;20480;-77
2022/03/16 01:27:36;;;;;;;5.90;3.17;;;;;;;-3.69;52.99;101081.13;5029470;28;20091;-79
2022/03/16 01:30:03;;;;;;;5.93;3.00;;;;;;;-3.74;53.01;101068.09;5018834;28;20044;-79
2022/03/16 01:32:28;;;;;;;7.07;3.15;;;;;;;-3.70;53.31;101076.81;5035148;28;20438;-79
2022/03/16 01:34:54;;;;;;;5.68;3.15;;;;;;;-3.69;53.34;101074.38;5051313;28;20041;-77
2022/03/16 01:37:20;;;;;;;6.97;3.08;;;;;;;-3.68;53.52;101080.34;5041905;28;20044;-77
2022/03/16 01:39:45;;;;;;;25.05;12.88;;;;;;;-3.70;53.75;101082.78;5043746;28;20033;-77
2022/03/16 01:42:11;;;;;;;5.53;3.25;;;;;;;-3.72;53.29;101079.22;5041720;28;20391;-78
2022/03/16 01:44:41;;;;;;;8.05;4.40;;;;;;;-3.73;54.13;101082.53;5051692;28;20094;-77
2022/03/16 01:47:06;;;;;;;6.03;3.63;;;;;;;-3.82;54.40;101091.97;5051348;28;20102;-77
2022/03/16 01:49:32;;;;;;;7.38;3.25;;;;;;;-3.91;54.27;101084.56;5037729;28;20084;-78
2022/03/16 01:51:58;;;;;;;5.90;3.15;;;;;;;-3.95;54.90;101089.28;5046883;28;20048;-78
2022/03/16 01:54:23;;;;;;;5.40;3.20;;;;;;;-3.99;54.82;101093.22;5027125;28;20544;-78
2022/03/16 01:56:49;;;;;;;12.40;3.95;;;;;;;-3.99;55.06;101095.75;5052927;28;20479;-78
2022/03/16 01:59:15;;;;;;;8.00;3.90;;;;;;;-4.03;54.90;101100.47;5018443;28;20025;-78
2022/03/16 02:01:41;;;;;;;10.52;4.13;;;;;;;-4.10;55.33;101110.16;5050347;28;20195;-78
2022/03/16 02:04:07;;;;;;;7.35;3.35;;;;;;;-4.16;55.71;101097.00;5034631;28;20056;-78
2022/03/16 02:06:33;;;;;;;6.32;3.30;;;;;;;-4.22;56.12;101099.03;5052588;28;20036;-78
2022/03/16 02:08:58;;;;;;;9.45;3.95;;;;;;;-4.20;56.02;101096.66;5024754;28;20091;-78
2022/03/16 02:11:24;;;;;;;9.52;3.85;;;;;;;-4.25;55.93;101098.84;5040840;28;20045;-78
2022/03/16 02:13:50;;;;;;;8.18;3.70;;;;;;;-4.22;56.11;101100.69;5031554;28;20064;-78
2022/03/16 02:16:15;;;;;;;9.70;3.50;;;;;;;-4.22;56.10;101103.25;5052488;28;20041;-78
2022/03/16 02:18:41;;;;;;;9.60;4.03;;;;;;;-4.28;56.51;101101.13;5052451;28;20040;-77
2022/03/16 02:21:07;;;;;;;7.15;3.83;;;;;;;-4.30;56.54;101100.13;5039183;28;20041;-78
2022/03/16 02:23:32;;;;;;;6.20;3.67;;;;;;;-4.31;56.97;101108.47;5034687;28;20403;-77
2022/03/16 02:25:58;;;;;;;7.72;3.58;;;;;;;-4.31;56.83;101115.19;5037073;28;20056;-78
2022/03/16 02:28:24;;;;;;;6.90;3.88;;;;;;;-4.33;56.80;101104.94;5018076;28;20044;-78
2022/03/16 02:30:50;;;;;;;8.27;3.83;;;;;;;-4.28;56.98;101103.66;5032501;28;20037;-78
2022/03/16 02:33:16;;;;;;;7.45;4.00;;;;;;;-4.23;56.78;101106.53;5014790;28;20117;-78
2022/03/16 02:35:42;;;;;;;8.40;4.25;;;;;;;-4.19;57.03;101104.38;5036943;28;20048;-77
2022/03/16 02:38:08;;;;;;;7.28;4.10;;;;;;;-4.30;56.58;101099.25;5034193;28;20040;-78
2022/03/16 02:40:34;;;;;;;9.07;3.45;;;;;;;-4.27;57.08;101109.59;5037175;28;20025;-78
2022/03/16 02:43:00;;;;;;;7.47;3.65;;;;;;;-4.27;57.08;101107.94;5029363;28;20033;-77
2022/03/16 02:45:25;;;;;;;6.95;3.83;;;;;;;-4.28;56.89;101113.78;5031248;28;20048;-77
2022/03/16 02:47:51;;;;;;;6.60;3.20;;;;;;;-4.30;57.25;101110.25;5031131;28;20037;-77
2022/03/16 02:50:17;;;;;;;8.73;4.00;;;;;;;-4.34;57.10;101105.72;5011174;28;20477;-77
2022/03/16 02:52:44;;;;;;;7.10;3.65;;;;;;;-4.31;57.25;101113.53;5031106;28;20120;-79
2022/03/16 02:55:10;;;;;;;7.88;3.90;;;;;;;-4.38;57.27;101118.91;5034887;28;20479;-78
2022/03/16 02:57:36;;;;;;;10.05;3.92;;;;;;;-4.44;57.72;101116.78;5034604;28;20143;-77
2022/03/16 03:00:05;;;;;;;6.90;3.70;;;;;;;-4.49;57.63;101118.06;5034479;28;20048;-77
2022/03/16 03:02:31;;;;;;;7.25;3.75;;;;;;;-4.53;57.86;101120.25;5034348;28;20045;-77
2022/03/16 03:04:57;;;;;;;7.82;3.90;;;;;;;-4.49;58.14;101115.53;5052199;28;20045;-77
2022/03/16 03:07:22;;;;;;;9.18;4.10;;;;;;;-4.52;57.77;101112.75;5052368;28;20095;-77
2022/03/16 03:09:48;;;;;;;7.75;3.53;;;;;;;-4.62;58.10;101117.88;5050807;28;20045;-77
2022/03/16 03:12:14;;;;;;;12.52;5.00;;;;;;;-4.67;58.34;101125.09;5050950;28;20071;-78
2022/03/16 03:14:40;;;;;;;7.97;4.53;;;;;;;-4.66;58.66;101115.84;5054865;28;20403;-78
2022/03/16 03:17:05;;;;;;;7.75;4.03;;;;;;;-4.66;58.26;101123.44;5037854;28;20090;-77
2022/03/16 03:19:31;;;;;;;10.93;4.25;;;;;;;-4.64;58.43;101120.25;5055776;28;20044;-79
2022/03/16 03:21:56;;;;;;;13.55;4.40;;;;;;;-4.69;58.73;101124.06;5054454;28;20037;-79
2022/03/16 03:24:25;;;;;;;7.38;4.25;;;;;;;-4.78;58.77;101125.88;5054245;28;20049;-79
2022/03/16 03:26:51;;;;;;;9.50;4.32;;;;;;;-4.86;58.85;101117.69;5037701;28;20060;-79
2022/03/16 03:29:16;;;;;;;;;;;;;;;-4.90;59.32;101122.38;5036751;28;20051;-80
2022/03/16 03:31:42;;;;;;;9.15;4.82;;;;;;;-4.92;59.38;101126.41;5036146;28;19913;-81
2022/03/16 03:34:08;;;;;;;8.95;4.40;;;;;;;-5.02;59.77;101129.84;4998316;28;20140;-78
2022/03/16 03:36:33;;;;;;;15.23;4.65;;;;;;;-5.01;59.84;101131.59;5032597;28;20037;-80
2022/03/16 03:38:59;;;;;;;9.60;4.15;;;;;;;-5.01;59.62;101135.78;5039472;28;20049;-79
2022/03/16 03:41:25;;;;;;;10.30;4.05;;;;;;;-5.07;59.31;101135.28;5054592;28;20045;-79
2022/03/16 03:43:51;;;;;;;7.47;4.20;;;;;;;-5.08;60.20;101141.13;5034978;28;20626;-76
2022/03/16 03:46:16;;;;;;;14.20;4.40;;;;;;;-5.11;59.53;101142.63;5038936;28;20094;-79
2022/03/16 03:48:42;;;;;;;11.70;4.82;;;;;;;-5.11;60.18;101141.75;5055046;28;20106;-77
2022/03/16 03:51:08;;;;;;;11.70;4.60;;;;;;;-5.14;60.22;101136.44;5042936;28;20404;-78
2022/03/16 03:53:34;;;;;;;10.80;5.00;;;;;;;-5.08;59.97;101141.13;5056607;28;20059;-78
2022/03/16 03:55:59;;;;;;;8.48;4.20;;;;;;;-5.09;60.29;101141.84;5057412;28;20115;-81
2022/03/16 03:58:25;;;;;;;10.80;4.90;;;;;;;-5.07;60.46;101146.31;5056859;28;20060;-79
2022/03/16 04:00:51;;;;;;;10.02;4.53;;;;;;;-5.07;59.71;101143.78;5052634;28;20041;-79
2022/03/16 04:03:16;;;;;;;10.48;4.47;;;;;;;-5.04;60.23;101158.31;5050306;28;20084;-79
2022/03/16 04:05:42;;;;;;;12.45;4.68;;;;;;;-5.08;59.65;101151.25;5058605;28;20033;-79
2022/03/16 04:08:08;;;;;;;13.32;4.38;;;;;;;-5.06;59.85;101152.25;5045490;28;20488;-79
2022/03/16 04:10:36;;;;;;;10.63;4.50;;;;;;;-5.01;60.19;101156.03;5045724;28;20048;-79
2022/03/16 04:13:03;;;;;;;10.02;4.82;;;;;;;-4.98;60.35;101156.28;5044227;28;20037;-80
2022/03/16 04:15:29;;;;;;;17.95;4.82;;;;;;;-4.99;59.91;101168.06;5026640;28;20474;-80
2022/03/16 04:17:54;;;;;;;;;;;;;;;-5.06;60.12;101159.84;5044237;28;20056;-79
2022/03/16 04:20:20;;;;;;;9.73;4.40;;;;;;;-5.01;59.91;101153.50;5062213;28;19916;-78
2022/03/16 04:22:46;;;;;;;31.48;6.30;;;;;;;-4.97;60.03;101166.53;5050577;28;20126;-80
2022/03/16 04:25:11;;;;;;;14.65;4.40;;;;;;;-4.95;60.02;101174.22;5051091;28;20056;-80
2022/03/16 04:27:37;;;;;;;10.85;4.80;;;;;;;-4.96;59.88;101167.41;5046248;28;20041;-80
2022/03/16 04:30:03;;;;;;;14.95;4.70;;;;;;;-4.92;59.83;101177.91;5050631;28;20048;-80
2022/03/16 04:32:29;;;;;;;14.95;4.65;;;;;;;-4.93;60.01;101178.69;5062415;28;20052;-78
2022/03/16 04:34:54;;;;;;;20.15;6.65;;;;;;;-4.98;59.89;101189.19;5063956;28;20041;-80
2022/03/16 04:37:20;;;;;;;13.45;5.22;;;;;;;-5.05;60.57;101182.72;5052827;28;20408;-79
2022/03/16 04:39:46;;;;;;;19.67;5.90;;;;;;;-5.00;60.67;101183.09;5046543;28;20021;-79
2022/03/16 04:42:12;;;;;;;12.75;4.85;;;;;;;-4.96;60.14;101182.59;5043928;28;20048;-80
2022/03/16 04:44:37;;;;;;;14.00;5.18;;;;;;;-5.01;60.75;101189.81;5061296;28;20036;-78
2022/03/16 04:47:03;;;;;;;15.20;5.47;;;;;;;-5.01;60.98;101188.94;5063888;28;20043;-80
2022/03/16 04:49:29;;;;;;;;;;;;;;;-4.98;61.16;101191.72;5048731;28;20041;-78
2022/03/16 04:51:55;;;;;;;18.40;5.03;;;;;;;-4.90;60.75;101180.59;5050410;28;19924;-80
2022/03/16 04:54:20;;;;;;;10.27;4.60;;;;;;;-4.89;60.35;101187.41;5064686;28;20033;-80
2022/03/16 04:56:46;;;;;;;13.10;5.32;;;;;;;-4.87;60.71;101183.34;5062354;28;20025;-81
2022/03/16 04:59:12;;;;;;;16.85;5.10;;;;;;;-4.81;60.72;101191.47;5051252;28;20061;-79
2022/03/16 05:01:38;;;;;;;13.43;5.47;;;;;;;-4.81;60.58;101185.47;5065307;28;20066;-79
2022/03/16 05:04:03;;;;;;;16.42;5.88;;;;;;;-4.79;60.52;101192.44;5044266;28;20042;-80
2022/03/16 05:06:29;;;;;;;15.73;6.30;;;;;;;-4.75;60.34;101193.59;5058984;28;20052;-80
2022/03/16 05:08:55;;;;;;;19.40;5.90;;;;;;;-4.67;60.90;101192.56;5055062;28;20037;-81
2022/03/16 05:11:22;;;;;;;23.92;8.40;;;;;;;-4.70;60.23;101190.66;5055207;28;20080;-82
2022/03/16 05:13:49;;;;;;;15.30;6.45;;;;;;;-4.64;60.52;101198.75;5046000;28;20508;-80
2022/03/16 05:16:14;;;;;;;30.80;6.80;;;;;;;-4.53;60.20;101196.22;5063195;28;20063;-79
2022/03/16 05:18:43;;;;;;;20.17;6.50;;;;;;;-4.54;59.89;101204.56;5049810;28;20029;-79
2022/03/16 05:21:08;;;;;;;17.50;7.30;;;;;;;-4.53;60.30;101198.75;5062382;28;20072;-79
2022/03/16 05:23:37;;;;;;;20.30;7.15;;;;;;;-4.46;60.21;101206.06;5047845;28;20510;-79
2022/03/16 05:26:03;;;;;;;20.55;6.88;;;;;;;-4.56;60.20;101206.97;5050137;28;20064;-80
2022/03/16 05:28:29;;;;;;;26.23;6.47;;;;;;;-4.56;60.19;101211.16;5047599;28;20044;-80
2022/03/16 05:30:55;;;;;;;16.05;5.88;;;;;;;-4.54;60.26;101207.09;5044998;28;20104;-79
2022/03/16 05:33:22;;;;;;;21.60;6.53;;;;;;;-4.45;60.36;101202.75;5045270;28;20127;-79
2022/03/16 05:35:48;;;;;;;24.58;6.47;;;;;;;-4.39;59.63;101209.22;5046591;28;20458;-79
2022/03/16 05:38:14;;;;;;;29.27;6.97;;;;;;;-4.26;59.83;101213.63;5063773;28;20029;-79
2022/03/16 05:40:40;;;;;;;27.73;7.15;;;;;;;-4.22;59.51;101210.53;5046686;28;20038;-81
2022/03/16 05:43:06;;;;;;;21.88;6.93;;;;;;;-4.13;59.42;101217.97;5053171;28;20033;-80
2022/03/16 05:45:32;;;;;;;18.35;7.13;;;;;;;-4.05;58.96;101216.94;5050027;28;20048;-81
2022/03/16 05:47:57;;;;;;;56.97;9.00;;;;;;;-4.02;58.97;101223.91;5058557;28;20048;-80
2022/03/16 05:50:28;;;;;;;18.90;7.10;;;;;;;-4.15;59.03;101233.09;5047754;28;20037;-80
2022/03/16 05:53:00;;;;;;;21.90;7.07;;;;;;;-4.23;59.37;101229.03;5063055;28;20072;-80
2022/03/16 05:55:26;;;;;;;24.38;8.13;;;;;;;-4.09;58.87;101233.56;5023380;28;20042;-78
2022/03/16 05:57:52;;;;;;;23.70;8.00;;;;;;;-3.98;59.04;101231.88;5043989;28;20548;-80
2022/03/16 06:00:18;;;;;;;;;;;;;;;-3.99;59.25;101244.41;5062388;28;20069;-79
2022/03/16 06:02:44;;;;;;;33.80;8.45;;;;;;;-3.87;59.07;101232.72;5060850;28;20398;-79
2022/03/16 06:05:10;;;;;;;31.80;9.90;;;;;;;-3.81;58.65;101242.44;5061976;28;20043;-80
2022/03/16 06:07:37;;;;;;;35.28;8.65;;;;;;;-3.78;59.16;101235.97;5040335;28;20427;-80
2022/03/16 06:10:07;;;;;;;21.50;8.15;;;;;;;-3.71;58.27;101237.31;5053650;28;20041;-79
2022/03/16 06:12:33;;;;;;;22.13;7.57;;;;;;;-3.76;58.40;101236.97;5043712;28;20032;-79
2022/03/16 06:14:59;;;;;;;19.65;7.45;;;;;;;-3.65;58.69;101237.81;5032804;28;20519;-79
2022/03/16 06:17:24;;;;;;;23.50;7.30;;;;;;;-3.70;58.32;101242.53;5041429;28;20037;-79
2022/03/16 06:19:50;;;;;;;38.67;7.85;;;;;;;-3.64;58.79;101245.53;5041871;28;20040;-79
2022/03/16 06:22:16;;;;;;;21.05;10.02;;;;;;;-3.65;58.65;101242.91;5043155;28;20489;-80
2022/03/16 06:24:42;;;;;;;23.25;7.85;;;;;;;-3.57;59.01;101244.38;5042851;28;20048;-79
2022/03/16 06:27:07;;;;;;;19.35;7.18;;;;;;;-3.49;58.29;101250.03;5041313;28;20428;-79
2022/03/16 06:29:33;;;;;;;22.48;7.75;;;;;;;-3.49;58.20;101245.81;5022686;28;20038;-80
2022/03/16 06:31:59;;;;;;;23.60;8.48;;;;;;;-3.45;58.24;101247.84;5040254;28;20072;-80
2022/03/16 06:34:25;;;;;;;22.13;8.80;;;;;;;-3.40;58.00;101249.06;5037683;28;20033;-80
2022/03/16 06:36:51;;;;;;;27.55;7.40;;;;;;;-3.38;58.29;101246.69;5038111;28;20088;-80
2022/03/16 06:39:16;;;;;;;19.92;7.53;;;;;;;-3.41;58.42;101249.84;5038563;28;20456;-79
2022/03/16 06:41:43;;;;;;;20.40;7.35;;;;;;;-3.41;58.89;101246.44;5019132;28;20053;-80
2022/03/16 06:44:10;;;;;;;18.17;7.35;;;;;;;-3.35;59.30;101241.81;5024630;28;20072;-80
2022/03/16 06:46:37;;;;;;;23.08;7.78;;;;;;;-3.25;58.72;101251.91;5036617;28;20080;-79
2022/03/16 06:49:03;;;;;;;21.85;6.95;;;;;;;-3.14;59.14;101255.25;5040768;28;20064;-80
2022/03/16 06:51:28;;;;;;;20.85;7.07;;;;;;;-3.13;59.45;101257.91;5039270;28;20032;-80
2022/03/16 06:53:54;;;;;;;23.33;6.80;;;;;;;-3.07;59.42;101253.31;5026681;28;20408;-79
2022/03/16 06:56:20;;;;;;;22.63;7.13;;;;;;;-3.14;59.58;101251.06;5032991;28;20067;-80
2022/03/16 06:58:45;;;;;;;18.25;7.07;;;;;;;-3.21;59.35;101247.94;5057525;28;20052;-82
2022/03/16 07:01:11;;;;;;;18.33;6.78;;;;;;;-3.20;58.87;101255.69;5060312;28;20043;-81
2022/03/16 07:03:37;;;;;;;18.92;7.68;;;;;;;-3.16;58.75;101262.78;5062233;28;20041;-80
2022/03/16 07:06:02;;;;;;;25.00;7.57;;;;;;;-3.12;58.94;101259.66;5062911;28;20044;-81
2022/03/16 07:08:28;;;;;;;18.13;6.75;;;;;;;-3.03;59.02;101258.59;5063490;28;20060;-79
2022/03/16 07:10:54;;;;;;;15.20;6.65;;;;;;;-3.00;58.59;101261.38;5047397;28;20041;-79
2022/03/16 07:13:20;;;;;;;20.30;7.85;;;;;;;-2.97;58.95;101265.06;5053119;28;20099;-79
2022/03/16 07:15:46;;;;;;;13.20;6.63;;;;;;;-2.92;58.38;101262.84;5046501;28;20025;-80
2022/03/16 07:18:12;;;;;;;17.20;7.22;;;;;;;-2.86;58.40;101261.66;5064798;28;20037;-82
2022/03/16 07:20:37;;;;;;;18.10;6.85;;;;;;;-2.79;58.16;101263.00;5054101;28;20060;-80
2022/03/16 07:23:09;;;;;;;17.83;6.55;;;;;;;-2.80;57.78;101258.66;5043758;28;20045;-81
2022/03/16 07:25:38;;;;;;;21.40;7.57;;;;;;;-2.72;56.81;101262.69;5035761;28;20049;-79
2022/03/16 07:28:04;;;;;;;18.92;6.25;;;;;;;-2.61;57.61;101261.84;5040827;28;20048;-82
2022/03/16 07:30:32;;;;;;;18.00;7.25;;;;;;;-2.51;56.58;101263.38;5043656;28;20021;-81
2022/03/16 07:32:57;;;;;;;20.67;6.70;;;;;;;-2.49;56.94;101255.88;5024355;28;20077;-81
2022/03/16 07:35:28;;;;;;;15.90;7.05;;;;;;;-2.48;56.79;101258.50;5041850;28;20048;-79
2022/03/16 07:37:57;;;;;;;10.75;6.55;;;;;;;-2.47;56.49;101249.25;5041958;28;20531;-80
2022/03/16 07:40:23;;;;;;;12.88;6.30;;;;;;;-2.38;55.84;101247.38;5005107;28;20496;-81
2022/03/16 07:42:50;;;;;;;12.02;6.25;;;;;;;-2.34;55.19;101249.34;5006532;28;20045;-79
2022/03/16 07:45:18;;;;;;;16.83;6.25;;;;;;;-2.27;55.13;101251.59;5036925;28;20016;-81
2022/03/16 07:47:48;;;;;;;22.20;7.18;;;;;;;-2.19;54.91;101245.41;5038507;28;20052;-79
2022/03/16 07:50:15;;;;;;;12.57;6.00;;;;;;;-2.13;54.57;101238.19;5045389;28;20053;-79
2022/03/16 07:52:40;;;;;;;18.73;5.97;;;;;;;-2.12;54.09;101246.72;5063939;28;20063;-79
2022/03/16 07:55:07;;;;;;;17.38;6.68;;;;;;;-2.05;54.21;101249.81;5046708;28;20044;-80
2022/03/16 07:57:34;;;;;;;26.77;7.32;;;;;;;-1.93;53.27;101246.34;5036712;28;20099;-80
2022/03/16 07:59:59;;;;;;;13.85;6.40;;;;;;;-1.93;53.20;101248.91;5038120;28;20124;-79
2022/03/16 08:02:28;;;;;;;16.98;5.63;;;;;;;-2.01;53.00;101252.59;5062155;28;20102;-79
2022/03/16 08:04:57;;;;;;;14.25;6.05;;;;;;;-1.98;53.35;101252.78;5064506;28;20516;-79
2022/03/16 08:07:27;;;;;;;14.80;6.25;;;;;;;-1.95;53.56;101247.94;5031312;28;20033;-79
2022/03/16 08:09:53;;;;;;;12.00;6.55;;;;;;;-1.86;53.33;101246.03;5042287;28;20477;-81
2022/03/16 08:12:19;;;;;;;15.73;6.55;;;;;;;-1.76;53.35;101245.03;5028259;28;20041;-82
2022/03/16 08:14:44;;;;;;;13.82;6.55;;;;;;;-1.73;52.91;101241.03;5049683;28;20041;-80
2022/03/16 08:17:10;;;;;;;10.27;5.85;;;;;;;-1.71;52.27;101249.66;5061775;28;20032;-79
2022/03/16 08:19:36;;;;;;;12.75;5.93;;;;;;;-1.68;52.67;101238.81;5063254;28;20048;-80
2022/03/16 08:22:01;;;;;;;18.65;7.82;;;;;;;-1.61;53.08;101246.97;5033547;28;20052;-80
2022/03/16 08:24:27;;;;;;;12.32;6.20;;;;;;;-1.54;52.80;101241.53;5045599;28;20045;-79
2022/03/16 08:26:53;;;;;;;15.05;7.15;;;;;;;-1.42;52.51;101243.16;5042292;28;20068;-80
2022/03/16 08:29:18;;;;;;;15.25;5.30;;;;;;;-1.32;52.20;101227.75;5041596;28;20052;-80
2022/03/16 08:31:44;;;;;;;13.65;6.00;;;;;;;-1.20;51.77;101236.19;5039175;28;20385;-81
2022/03/16 08:34:10;;;;;;;17.67;6.78;;;;;;;-1.11;50.75;101229.19;5042171;28;20045;-79
2022/03/16 08:36:35;;;;;;;12.52;5.53;;;;;;;-0.96;51.06;101228.44;5023523;28;20041;-83
2022/03/16 08:39:03;;;;;;;9.98;4.65;;;;;;;-0.92;50.14;101227.88;5040097;28;20033;-80
2022/03/16 08:41:31;;;;;;;7.20;4.32;;;;;;;-0.87;49.00;101226.50;5025545;28;20037;-79
2022/03/16 08:43:57;;;;;;;14.32;4.57;;;;;;;-0.82;48.06;101237.91;5059855;28;20060;-79
2022/03/16 08:46:23;;;;;;;14.65;5.22;;;;;;;-0.79;47.67;101238.09;5058791;28;20404;-82
2022/03/16 08:48:48;;;;;;;9.10;4.32;;;;;;;-0.73;46.82;101230.88;5045611;28;20037;-80
2022/03/16 08:51:14;;;;;;;29.08;5.30;;;;;;;-0.67;46.36;101233.81;5049848;28;20037;-80
2022/03/16 08:53:40;;;;;;;18.55;5.72;;;;;;;-0.66;45.63;101235.59;5041702;28;20053;-79
2022/03/16 08:56:05;;;;;;;14.10;4.68;;;;;;;-0.59;45.55;101224.16;5042967;28;20037;-80
2022/03/16 08:58:31;;;;;;;26.38;5.55;;;;;;;-0.53;45.20;101239.84;5044064;28;20398;-80
2022/03/16 09:00:57;;;;;;;12.05;4.32;;;;;;;-0.54;45.18;101238.06;5024492;28;20037;-79
2022/03/16 09:03:23;;;;;;;12.57;4.72;;;;;;;-0.39;44.34;101240.72;5024593;28;20049;-80
2022/03/16 09:05:49;;;;;;;9.38;4.38;;;;;;;-0.31;43.57;101237.91;5040277;28;20072;-83
2022/03/16 09:08:14;;;;;;;8.85;3.63;;;;;;;-0.37;42.98;101231.50;5039616;28;20053;-81
2022/03/16 09:10:40;;;;;;;7.97;3.97;;;;;;;-0.40;42.58;101232.19;5039888;28;20044;-80
2022/03/16 09:13:06;;;;;;;8.23;4.05;;;;;;;-0.41;43.00;101234.63;5041908;28;20412;-80
2022/03/16 09:15:32;;;;;;;18.17;4.15;;;;;;;-0.32;42.89;101237.78;5039995;28;20037;-82
2022/03/16 09:17:58;;;;;;;;;;;;;;;-0.27;42.68;101236.44;5040055;28;20037;-80
2022/03/16 09:20:24;;;;;;;12.48;4.38;;;;;;;-0.11;42.75;101240.84;5042206;28;19919;-81
2022/03/16 09:22:50;;;;;;;13.63;3.97;;;;;;;-0.01;41.44;101238.94;5041128;28;20052;-79
2022/03/16 09:25:15;;;;;;;14.20;4.60;;;;;;;0.13;40.99;101241.50;5040620;28;20053;-79
2022/03/16 09:27:41;;;;;;;14.75;4.88;;;;;;;0.28;40.78;101237.38;5026517;28;20041;-80
2022/03/16 09:30:07;;;;;;;10.07;3.92;;;;;;;0.37;40.04;101237.06;5040770;28;20038;-81
2022/03/16 09:32:33;;;;;;;7.70;3.25;;;;;;;0.42;39.67;101244.22;5039715;28;20052;-80
2022/03/16 09:35:00;;;;;;;21.13;7.85;;;;;;;0.62;39.52;101237.75;5039751;28;20601;-79
2022/03/16 09:37:26;;;;;;;11.05;4.10;;;;;;;0.78;39.40;101247.25;5042104;28;20103;-80
2022/03/16 09:39:52;;;;;;;7.88;3.90;;;;;;;0.95;39.21;101235.47;5039814;28;20041;-80
2022/03/16 09:42:20;;;;;;;5.53;3.92;;;;;;;1.76;37.21;101232.50;5018874;28;20065;-81
2022/03/16 09:44:46;;;;;;;8.35;3.40;;;;;;;3.39;34.71;101236.88;5047890;28;20043;-79
2022/03/16 09:47:12;;;;;;;10.35;3.45;;;;;;;4.68;32.36;101231.91;5034616;28;20037;-81
2022/03/16 09:49:38;;;;;;;7.50;3.72;;;;;;;5.40;31.18;101235.00;5029144;28;20111;-79
2022/03/16 09:52:07;;;;;;;6.50;3.45;;;;;;;6.15;30.32;101232.06;5055023;28;20392;-81
2022/03/16 09:54:32;;;;;;;11.98;3.45;;;;;;;6.91;28.71;101226.28;5056768;28;20039;-82
2022/03/16 09:56:58;;;;;;;8.07;3.35;;;;;;;7.48;28.32;101222.28;5054626;28;20119;-79
2022/03/16 09:59:24;;;;;;;9.07;3.35;;;;;;;7.94;27.46;101218.59;5055397;28;20040;-82
2022/03/16 10:02:01;;;;;;;12.43;3.55;;;;;;;8.29;26.43;101227.44;5042531;28;20049;-80
2022/03/16 10:04:28;;;;;;;8.25;3.33;;;;;;;9.00;25.96;101217.41;5041252;28;20524;-82
2022/03/16 10:06:53;;;;;;;9.45;3.50;;;;;;;8.97;25.53;101214.75;5053553;28;20111;-81
2022/03/16 10:15:07;;;;;;;15.75;3.42;;;;;;;10.05;23.64;101211.41;5048383;28;20049;-81
2022/03/16 10:17:45;;;;;;;35.00;4.18;;;;;;;10.23;23.87;101202.31;5053003;28;20036;-80
2022/03/16 10:20:31;;;;;;;10.13;3.30;;;;;;;9.97;22.71;101209.47;5053159;28;20132;-80
2022/03/16 10:23:01;;;;;;;12.15;4.05;;;;;;;10.24;23.25;101209.22;5051691;28;20123;-81
2022/03/16 10:25:28;;;;;;;7.82;3.25;;;;;;;10.47;22.33;101208.03;5052253;28;20071;-82
2022/03/16 10:28:10;;;;;;;6.45;3.58;;;;;;;9.82;23.24;101213.47;5035608;28;20029;-82
2022/03/16 10:31:02;;;;;;;13.05;4.25;;;;;;;10.53;22.22;101202.97;5046461;28;20091;-83
2022/03/16 10:33:30;;;;;;;6.57;2.83;;;;;;;10.93;22.31;101198.56;5023920;28;20053;-81
2022/03/16 10:35:57;;;;;;;16.25;3.58;;;;;;;10.50;21.43;101213.31;5052549;28;20033;-80
2022/03/16 10:38:23;;;;;;;6.55;3.20;;;;;;;10.75;21.94;101214.66;5052563;28;20056;-79
2022/03/16 10:40:53;;;;;;;;;;;;;;;11.03;21.63;101216.06;5020134;28;20030;-80
2022/03/16 10:46:55;;;;;;;3.50;2.35;;;;;;;10.92;20.74;101204.63;5022518;28;20124;-81
2022/03/16 10:49:09;;;;;;;8.98;3.60;;;;;;;11.25;20.53;101200.88;5030037;28;20056;-82
2022/03/16 10:51:35;;;;;;;9.25;3.38;;;;;;;11.99;20.12;101203.84;5053787;28;20082;-80
2022/03/16 10:54:02;;;;;;;;;;;;;;;12.21;19.76;101205.91;5055226;28;20487;-83
2022/03/16 10:56:28;;;;;;;6.05;3.15;;;;;;;12.44;19.37;101198.41;5053474;28;19916;-80
2022/03/16 10:58:53;;;;;;;;;;;;;;;12.40;19.29;101200.97;5055360;28;20041;-80
2022/03/16 11:01:20;;;;;;;9.20;3.55;;;;;;;11.90;19.69;101195.91;5056386;28;19978;-80
2022/03/16 11:03:50;;;;;;;7.07;2.85;;;;;;;11.49;19.88;101195.22;5033189;28;20042;-80
2022/03/16 11:06:20;;;;;;;5.28;2.92;;;;;;;11.29;20.52;101208.75;5037346;28;20132;-80
2022/03/16 11:08:47;;;;;;;6.97;3.45;;;;;;;11.54;20.31;101204.84;5002956;28;20412;-81
2022/03/16 11:13:58;;;;;;;4.78;2.80;;;;;;;12.53;19.69;101204.59;5053006;28;20048;-79
2022/03/16 11:16:24;;;;;;;;;;;;;;;12.51;19.18;101198.47;5038732;28;20505;-81
2022/03/16 11:18:51;;;;;;;12.47;3.10;;;;;;;12.57;19.61;101195.97;5055185;28;19916;-81
2022/03/16 11:21:29;;;;;;;10.40;3.05;;;;;;;13.41;18.53;101208.19;5047157;28;20041;-81
2022/03/16 11:26:58;;;;;;;6.03;3.22;;;;;;;13.07;18.56;101199.16;5040148;28;20077;-79
2022/03/16 11:29:38;;;;;;;8.15;3.28;;;;;;;13.42;18.55;101199.53;5052961;28;20064;-79
2022/03/16 11:32:17;;;;;;;6.45;2.70;;;;;;;13.81;18.09;101198.09;5029241;28;20470;-79
2022/03/16 11:35:00;;;;;;;9.73;3.10;;;;;;;14.36;17.67;101181.88;5056257;28;20518;-82
2022/03/16 11:37:47;;;;;;;10.77;3.40;;;;;;;13.83;17.23;101198.09;5056680;28;20040;-80